createdAt,value
2018-09-06T00:01:00.223Z,59.80
2018-09-06T00:03:27.824Z,59.80
2018-09-06T00:05:55.517Z,59.90
2018-09-06T00:08:23.495Z,60.10
2018-09-06T00:10:51.446Z,60.30
2018-09-06T00:13:19.023Z,60.40
2018-09-06T00:15:46.887Z,60.60
2018-09-06T00:18:14.499Z,61.00
2018-09-06T00:20:42.114Z,61.10
2018-09-06T00:23:09.815Z,61.30
2018-09-06T00:25:37.651Z,61.50
2018-09-06T00:28:05.516Z,61.70
2018-09-06T00:30:33.122Z,61.90
2018-09-06T00:33:00.667Z,62.20
2018-09-06T00:35:28.286Z,62.60
2018-09-06T00:37:55.927Z,62.90
2018-09-06T00:40:23.623Z,63.20
2018-09-06T00:42:51.258Z,63.40
2018-09-06T00:45:19.088Z,63.40
2018-09-06T00:47:46.816Z,63.40
2018-09-06T00:50:15.521Z,63.80
2018-09-06T00:52:43.599Z,64.20
2018-09-06T00:55:11.456Z,63.70
2018-09-06T00:57:39.127Z,64.00
2018-09-06T01:00:06.800Z,64.70
2018-09-06T01:02:34.458Z,64.80
2018-09-06T01:05:02.082Z,65.30
2018-09-06T01:07:29.734Z,65.10
2018-09-06T01:09:57.410Z,64.60
2018-09-06T01:12:26.031Z,64.70
2018-09-06T01:14:53.884Z,64.60
2018-09-06T01:17:21.462Z,65.00
2018-09-06T01:19:49.109Z,65.30
2018-09-06T01:22:16.787Z,65.80
2018-09-06T01:24:44.447Z,66.10
2018-09-06T01:27:12.091Z,66.60
2018-09-06T01:29:39.805Z,67.00
2018-09-06T01:32:07.499Z,67.20
2018-09-06T01:34:35.181Z,67.60
2018-09-06T01:37:06.615Z,67.60
2018-09-06T01:39:34.799Z,68.10
2018-09-06T01:42:02.789Z,68.00
2018-09-06T01:44:30.420Z,68.50
2018-09-06T01:46:58.110Z,68.90
2018-09-06T01:49:25.730Z,69.00
2018-09-06T01:51:53.364Z,69.20
2018-09-06T01:54:20.983Z,69.30
2018-09-06T01:56:48.670Z,68.80
2018-09-06T01:59:16.242Z,68.30
2018-09-06T02:01:43.867Z,67.80
2018-09-06T02:04:11.494Z,68.00
2018-09-06T02:06:39.233Z,67.90
2018-09-06T02:09:07.690Z,67.00
2018-09-06T02:11:35.687Z,66.70
2018-09-06T02:14:03.379Z,66.10
2018-09-06T02:16:31.221Z,65.60
2018-09-06T02:18:58.863Z,65.50
2018-09-06T02:21:26.547Z,65.20
2018-09-06T02:23:54.153Z,65.60
2018-09-06T02:26:21.791Z,65.80
2018-09-06T02:28:49.442Z,65.70
2018-09-06T02:31:17.135Z,65.70
2018-09-06T02:33:44.749Z,66.10
2018-09-06T02:36:12.374Z,67.50
2018-09-06T02:38:39.945Z,67.40
2018-09-06T02:41:07.579Z,67.70
2018-09-06T02:43:35.159Z,67.80
2018-09-06T02:46:02.838Z,67.80
2018-09-06T02:48:38.946Z,68.50
2018-09-06T02:51:12.239Z,69.30
2018-09-06T02:53:40.545Z,69.60
2018-09-06T02:56:08.454Z,69.50
2018-09-06T02:58:36.190Z,69.40
2018-09-06T03:01:03.859Z,69.20
2018-09-06T03:03:31.492Z,69.20
2018-09-06T03:05:59.150Z,69.20
2018-09-06T03:08:26.858Z,69.00
2018-09-06T03:11:01.791Z,69.50
2018-09-06T03:13:29.344Z,70.40
2018-09-06T03:15:57.032Z,70.80
2018-09-06T03:18:24.639Z,71.70
2018-09-06T03:20:52.251Z,72.00
2018-09-06T03:23:19.969Z,71.80
2018-09-06T03:25:47.623Z,71.60
2018-09-06T03:28:15.310Z,71.50
2018-09-06T03:30:42.924Z,72.20
2018-09-06T03:33:10.582Z,72.50
2018-09-06T03:35:38.163Z,72.40
2018-09-06T03:38:05.819Z,72.40
2018-09-06T03:40:33.480Z,73.00
2018-09-06T03:43:01.114Z,73.70
2018-09-06T03:45:28.779Z,74.10
2018-09-06T03:47:56.515Z,74.20
2018-09-06T03:50:24.200Z,73.90
2018-09-06T03:52:51.862Z,74.00
2018-09-06T03:55:19.486Z,73.60
2018-09-06T03:57:47.211Z,73.80
2018-09-06T04:00:14.823Z,74.20
2018-09-06T04:02:42.471Z,74.10
2018-09-06T04:05:10.051Z,74.60
2018-09-06T04:07:37.774Z,74.90
2018-09-06T04:10:05.499Z,74.70
2018-09-06T04:12:33.170Z,75.00
2018-09-06T04:15:00.800Z,75.50
2018-09-06T04:17:28.437Z,75.70
2018-09-06T04:19:56.142Z,75.70
2018-09-06T04:22:23.747Z,75.90
2018-09-06T04:24:51.319Z,76.60
2018-09-06T04:27:18.958Z,78.90
2018-09-06T04:29:46.574Z,80.60
2018-09-06T04:32:14.211Z,81.10
2018-09-06T04:34:41.821Z,81.20
2018-09-06T04:37:09.487Z,80.60
2018-09-06T04:39:37.178Z,80.90
2018-09-06T04:42:04.758Z,81.40
2018-09-06T04:44:32.463Z,81.40
2018-09-06T04:47:00.011Z,81.20
2018-09-06T04:49:27.695Z,80.90
2018-09-06T04:51:55.343Z,80.30
2018-09-06T04:54:22.977Z,79.20
2018-09-06T04:56:50.807Z,78.80
2018-09-06T04:59:18.474Z,78.40
2018-09-06T05:01:46.157Z,78.00
2018-09-06T05:04:13.813Z,77.80
2018-09-06T05:06:41.422Z,78.00
2018-09-06T05:09:09.914Z,77.90
2018-09-06T05:11:38.286Z,77.80
2018-09-06T05:14:05.994Z,77.70
2018-09-06T05:16:33.684Z,77.50
2018-09-06T05:19:01.327Z,77.90
2018-09-06T05:21:28.899Z,78.00
2018-09-06T05:23:56.555Z,77.90
2018-09-06T05:26:24.151Z,77.60
2018-09-06T05:28:51.897Z,76.50
2018-09-06T05:31:19.508Z,76.30
2018-09-06T05:33:47.243Z,76.50
2018-09-06T05:36:14.903Z,76.50
2018-09-06T05:38:42.505Z,76.00
2018-09-06T05:41:10.195Z,75.50
2018-09-06T05:43:37.897Z,75.50
2018-09-06T05:46:05.789Z,75.30
2018-09-06T05:48:33.398Z,74.80
2018-09-06T05:51:01.052Z,74.40
2018-09-06T05:53:28.863Z,74.40
2018-09-06T05:55:56.438Z,73.90
2018-09-06T05:58:24.194Z,74.30
2018-09-06T06:00:51.910Z,73.90
2018-09-06T06:03:19.551Z,73.30
2018-09-06T06:05:47.179Z,73.40
2018-09-06T06:08:26.110Z,73.40
2018-09-06T06:10:53.694Z,73.00
2018-09-06T06:13:21.424Z,73.20
2018-09-06T06:15:49.106Z,73.30
2018-09-06T06:18:16.694Z,73.20
2018-09-06T06:20:44.357Z,73.90
2018-09-06T06:23:12.015Z,72.80
2018-09-06T06:25:39.691Z,73.30
2018-09-06T06:28:07.337Z,73.50
2018-09-06T06:30:35.031Z,74.10
2018-09-06T06:33:02.735Z,74.40
2018-09-06T06:35:30.366Z,74.20
2018-09-06T06:37:58.077Z,74.10
2018-09-06T06:40:29.695Z,74.00
2018-09-06T06:42:57.338Z,74.00
2018-09-06T06:45:24.961Z,74.40
2018-09-06T06:47:52.543Z,74.70
2018-09-06T06:50:21.036Z,74.90
2018-09-06T06:52:48.615Z,74.70
2018-09-06T06:55:17.404Z,74.50
2018-09-06T06:57:45.125Z,74.80
2018-09-06T07:00:12.875Z,75.00
2018-09-06T07:02:40.475Z,75.20
2018-09-06T07:05:08.099Z,75.30
2018-09-06T07:07:35.743Z,75.10
2018-09-06T07:10:03.778Z,74.80
2018-09-06T07:12:31.627Z,74.10
2018-09-06T07:14:59.330Z,73.80
2018-09-06T07:17:26.930Z,73.10
2018-09-06T07:19:54.579Z,70.40
2018-09-06T07:22:22.201Z,67.40
2018-09-06T07:24:49.850Z,63.40
2018-09-06T07:27:17.616Z,60.30
2018-09-06T07:29:45.306Z,59.90
2018-09-06T07:32:12.936Z,60.10
2018-09-06T07:34:41.458Z,61.00
2018-09-06T07:37:09.039Z,60.90
2018-09-06T07:39:37.149Z,61.50
2018-09-06T07:42:04.854Z,62.50
2018-09-06T07:44:32.513Z,63.80
2018-09-06T07:47:00.083Z,63.70
2018-09-06T07:49:27.723Z,63.60
2018-09-06T07:51:55.312Z,63.60
2018-09-06T07:54:23.386Z,63.20
2018-09-06T07:56:51.053Z,62.70
2018-09-06T07:59:18.682Z,63.00
2018-09-06T08:01:46.291Z,63.30
2018-09-06T08:04:13.978Z,62.90
2018-09-06T08:06:42.035Z,63.60
2018-09-06T08:09:10.670Z,64.10
2018-09-06T08:11:38.839Z,64.70
2018-09-06T08:14:06.517Z,65.30
2018-09-06T08:16:34.594Z,66.40
2018-09-06T08:19:02.271Z,66.60
2018-09-06T08:21:29.996Z,67.10
2018-09-06T08:23:57.681Z,67.60
2018-09-06T08:26:25.683Z,68.00
2018-09-06T08:28:53.318Z,68.70
2018-09-06T08:31:21.048Z,68.90
2018-09-06T08:33:49.558Z,67.50
2018-09-06T08:36:17.430Z,66.70
2018-09-06T08:38:45.002Z,64.40
2018-09-06T08:41:13.078Z,59.00
2018-09-06T08:43:40.942Z,55.20
2018-09-06T08:46:08.854Z,52.60
2018-09-06T08:48:36.531Z,49.10
2018-09-06T08:51:04.395Z,49.40
2018-09-06T08:53:32.014Z,48.50
2018-09-06T08:55:59.660Z,47.90
2018-09-06T08:58:27.409Z,48.50
2018-09-06T09:01:00.766Z,49.10
2018-09-06T09:03:28.596Z,47.90
2018-09-06T09:05:56.491Z,47.00
2018-09-06T09:08:24.236Z,46.90
2018-09-06T09:10:52.002Z,47.50
2018-09-06T09:13:19.667Z,47.90
2018-09-06T09:15:47.470Z,46.40
2018-09-06T09:18:15.140Z,47.20
2018-09-06T09:20:42.838Z,46.90
2018-09-06T09:23:10.491Z,47.10
2018-09-06T09:28:12.060Z,47.90
2018-09-06T09:30:39.831Z,52.00
2018-09-06T09:33:07.431Z,52.90
2018-09-06T09:35:35.095Z,52.80
2018-09-06T09:38:02.811Z,53.00
2018-09-06T09:40:30.488Z,52.50
2018-09-06T09:42:58.166Z,53.00
2018-09-06T09:45:25.947Z,53.10
2018-09-06T09:47:53.697Z,53.50
2018-09-06T09:52:48.683Z,52.50
2018-09-06T09:55:16.362Z,52.30
2018-09-06T09:57:43.974Z,50.80
2018-09-06T10:00:11.594Z,48.60
2018-09-06T10:02:44.870Z,47.70
2018-09-06T10:05:17.965Z,47.40
2018-09-06T10:07:51.182Z,47.80
2018-09-06T10:10:18.761Z,49.00
2018-09-06T10:12:46.427Z,47.60
2018-09-06T10:15:13.998Z,47.20
2018-09-06T10:17:41.694Z,47.90
2018-09-06T10:20:09.341Z,48.00
2018-09-06T10:22:37.046Z,47.10
2018-09-06T10:25:04.822Z,47.10
2018-09-06T10:27:32.582Z,47.20
2018-09-06T10:30:00.370Z,47.00
2018-09-06T10:32:28.046Z,46.90
2018-09-06T10:34:55.930Z,47.70
2018-09-06T10:37:23.722Z,47.70
2018-09-06T10:39:51.412Z,48.80
2018-09-06T10:42:19.095Z,47.80
2018-09-06T10:44:46.763Z,47.30
2018-09-06T10:47:14.422Z,47.80
2018-09-06T10:49:42.048Z,46.70
2018-09-06T10:52:09.647Z,46.60
2018-09-06T10:54:37.272Z,46.30
2018-09-06T10:57:05.248Z,45.90
2018-09-06T10:59:33.008Z,45.30
2018-09-06T11:02:00.727Z,45.80
2018-09-06T11:04:28.411Z,46.20
2018-09-06T11:06:56.223Z,46.40
2018-09-06T11:09:23.931Z,47.80
2018-09-06T11:11:51.579Z,48.70
2018-09-06T11:14:19.256Z,48.90
2018-09-06T11:16:46.995Z,47.90
2018-09-06T11:19:14.662Z,46.90
2018-09-06T11:21:42.405Z,46.10
2018-09-06T11:24:09.939Z,45.80
2018-09-06T11:26:37.530Z,46.50
2018-09-06T11:29:05.214Z,46.20
2018-09-06T11:31:33.041Z,45.20
2018-09-06T11:34:00.680Z,44.80
2018-09-06T11:36:28.325Z,44.50
2018-09-06T11:38:56.037Z,44.40
2018-09-06T11:41:23.743Z,45.20
2018-09-06T11:43:51.466Z,44.70
2018-09-06T11:46:19.147Z,44.90
2018-09-06T11:48:46.958Z,45.70
2018-09-06T11:51:14.681Z,45.70
2018-09-06T11:53:42.330Z,46.10
2018-09-06T11:56:10.113Z,45.80
2018-09-06T11:58:38.012Z,45.20
2018-09-06T12:01:05.996Z,46.10
2018-09-06T12:03:33.821Z,46.90
2018-09-06T12:06:01.527Z,47.60
2018-09-06T12:08:29.225Z,47.70
2018-09-06T12:10:56.982Z,47.20
2018-09-06T12:13:24.646Z,47.20
2018-09-06T12:15:52.376Z,47.80
2018-09-06T12:18:20.163Z,47.70
2018-09-06T12:20:47.838Z,47.00
2018-09-06T12:23:15.913Z,44.60
2018-09-06T12:25:43.635Z,45.40
2018-09-06T12:28:11.492Z,46.20
2018-09-06T12:30:39.388Z,45.90
2018-09-06T12:33:07.144Z,45.80
2018-09-06T12:35:34.821Z,45.50
2018-09-06T12:38:02.619Z,45.00
2018-09-06T12:40:30.431Z,44.50
2018-09-06T12:42:58.545Z,44.10
2018-09-06T12:45:26.274Z,43.80
2018-09-06T12:47:53.980Z,43.70
2018-09-06T12:50:21.718Z,43.30
2018-09-06T12:52:49.364Z,42.50
2018-09-06T12:55:17.124Z,42.20
2018-09-06T12:57:44.851Z,41.70
2018-09-06T13:00:12.595Z,41.90
2018-09-06T13:02:40.355Z,42.20
2018-09-06T13:05:08.130Z,42.30
2018-09-06T13:07:35.823Z,43.30
2018-09-06T13:10:03.884Z,42.60
2018-09-06T13:12:31.583Z,43.60
2018-09-06T13:14:59.257Z,44.00
2018-09-06T13:17:27.371Z,44.10
2018-09-06T13:19:55.124Z,45.50
2018-09-06T13:22:22.867Z,46.50
2018-09-06T13:24:50.603Z,49.20
2018-09-06T13:27:18.451Z,53.40
2018-09-06T13:29:46.190Z,56.90
2018-09-06T13:32:13.975Z,53.10
2018-09-06T13:34:41.690Z,50.00
2018-09-06T13:37:09.513Z,52.00
2018-09-06T13:39:37.982Z,54.90
2018-09-06T13:42:05.777Z,56.30
2018-09-06T13:44:33.399Z,56.40
2018-09-06T13:47:01.031Z,56.30
2018-09-06T13:49:28.745Z,56.10
2018-09-06T13:51:56.447Z,55.90
2018-09-06T13:54:24.150Z,55.30
2018-09-06T13:56:51.816Z,54.70
2018-09-06T13:59:19.538Z,54.60
2018-09-06T14:01:47.231Z,54.10
2018-09-06T14:04:14.951Z,54.80
2018-09-06T14:06:42.598Z,54.90
2018-09-06T14:09:10.215Z,55.50
2018-09-06T14:11:37.991Z,55.40
2018-09-06T14:14:05.801Z,55.80
2018-09-06T14:16:33.520Z,54.70
2018-09-06T14:19:01.387Z,55.60
2018-09-06T14:21:29.114Z,56.50
2018-09-06T14:23:56.842Z,57.50
2018-09-06T14:26:24.685Z,56.70
2018-09-06T14:28:52.376Z,56.40
2018-09-06T14:31:19.979Z,56.10
2018-09-06T14:33:47.640Z,56.60
2018-09-06T14:36:15.360Z,56.10
2018-09-06T14:38:42.966Z,55.90
2018-09-06T14:41:10.614Z,54.30
2018-09-06T14:43:38.263Z,54.00
2018-09-06T14:46:06.012Z,54.40
2018-09-06T14:48:33.680Z,54.40
2018-09-06T14:51:01.386Z,55.00
2018-09-06T14:53:29.036Z,55.20
2018-09-06T14:55:56.765Z,55.40
2018-09-06T14:58:24.558Z,55.80
2018-09-06T15:00:52.183Z,56.20
2018-09-06T15:03:19.818Z,59.20
2018-09-06T15:05:47.446Z,65.20
2018-09-06T15:08:15.105Z,75.70
2018-09-06T15:10:42.763Z,87.90
2018-09-06T15:13:10.367Z,92.50
2018-09-06T15:15:38.161Z,93.70
2018-09-06T15:18:05.975Z,94.80
2018-09-06T15:20:33.645Z,95.10
2018-09-06T15:23:01.243Z,94.50
2018-09-06T15:25:28.945Z,93.60
2018-09-06T15:27:56.551Z,93.20
2018-09-06T15:30:24.162Z,92.50
2018-09-06T15:32:51.838Z,92.10
2018-09-06T15:35:19.495Z,92.40
2018-09-06T15:37:47.187Z,91.90
2018-09-06T15:40:14.798Z,92.00
2018-09-06T15:42:42.514Z,92.20
2018-09-06T15:45:10.296Z,91.70
2018-09-06T15:47:37.939Z,90.80
2018-09-06T15:50:06.657Z,90.90
2018-09-06T15:52:34.327Z,91.40
2018-09-06T15:55:01.902Z,91.60
2018-09-06T15:57:29.598Z,92.00
2018-09-06T15:59:57.203Z,91.60
2018-09-06T16:02:25.010Z,91.40
2018-09-06T16:04:52.742Z,92.70
2018-09-06T16:07:20.425Z,92.90
2018-09-06T16:09:48.126Z,93.40
2018-09-06T16:12:15.837Z,93.70
2018-09-06T16:14:43.444Z,93.20
2018-09-06T16:17:11.066Z,93.40
2018-09-06T16:19:38.727Z,93.30
2018-09-06T16:22:06.550Z,93.20
2018-09-06T16:24:34.349Z,93.80
2018-09-06T16:27:01.905Z,93.80
2018-09-06T16:29:29.723Z,93.70
2018-09-06T16:31:57.339Z,93.60
2018-09-06T16:34:25.040Z,93.40
2018-09-06T16:36:52.740Z,93.30
2018-09-06T16:39:20.434Z,93.20
2018-09-06T16:41:48.147Z,93.20
2018-09-06T16:44:15.751Z,93.40
2018-09-06T16:46:43.460Z,93.60
2018-09-06T16:49:11.137Z,93.10
2018-09-06T16:51:38.839Z,93.00
2018-09-06T16:54:06.642Z,92.20
2018-09-06T16:56:34.316Z,92.30
2018-09-06T16:59:01.957Z,92.50
2018-09-06T17:01:29.666Z,92.20
2018-09-06T17:03:57.368Z,91.90
2018-09-06T17:06:25.046Z,91.70
2018-09-06T17:08:52.678Z,92.20
2018-09-06T17:11:20.290Z,92.20
2018-09-06T17:13:47.938Z,92.10
2018-09-06T17:16:15.751Z,91.90
2018-09-06T17:18:43.480Z,92.70
2018-09-06T17:21:11.133Z,92.70
2018-09-06T17:23:38.866Z,93.10
2018-09-06T17:26:06.816Z,92.30
2018-09-06T17:28:34.386Z,91.90
2018-09-06T17:31:02.134Z,92.10
2018-09-06T17:33:29.844Z,92.20
2018-09-06T17:35:57.519Z,92.80
2018-09-06T17:38:25.238Z,93.10
2018-09-06T17:40:52.839Z,92.80
2018-09-06T17:43:20.554Z,92.50
2018-09-06T17:45:48.201Z,92.20
2018-09-06T17:48:15.930Z,91.60
2018-09-06T17:50:43.795Z,91.70
2018-09-06T17:53:11.598Z,92.10
2018-09-06T17:55:40.297Z,92.90
2018-09-06T17:58:07.931Z,93.50
2018-09-06T18:00:41.176Z,93.80
2018-09-06T18:03:09.122Z,93.90
2018-09-06T18:05:36.789Z,94.60
2018-09-06T18:08:04.740Z,94.80
2018-09-06T18:10:41.563Z,94.80
2018-09-06T18:13:09.535Z,94.50
2018-09-06T18:15:37.233Z,95.20
2018-09-06T18:18:04.928Z,95.90
2018-09-06T18:20:32.711Z,96.60
2018-09-06T18:23:01.686Z,97.20
2018-09-06T18:25:29.454Z,97.30
2018-09-06T18:27:57.122Z,97.80
2018-09-06T18:30:25.077Z,98.00
2018-09-06T18:32:52.970Z,97.90
2018-09-06T18:35:20.708Z,97.70
2018-09-06T18:37:48.371Z,97.40
2018-09-06T18:40:16.031Z,97.10
2018-09-06T18:42:43.819Z,96.70
2018-09-06T18:45:11.551Z,96.30
2018-09-06T18:47:39.174Z,96.20
2018-09-06T18:50:06.894Z,96.20
2018-09-06T18:52:34.545Z,95.90
2018-09-06T18:55:02.218Z,95.90
2018-09-06T18:57:30.078Z,95.90
2018-09-06T18:59:58.470Z,96.20
2018-09-06T19:02:26.180Z,96.40
2018-09-06T19:04:53.792Z,96.60
2018-09-06T19:07:21.486Z,96.70
2018-09-06T19:09:49.214Z,96.90
2018-09-06T19:12:17.027Z,97.30
2018-09-06T19:14:44.566Z,97.90
2018-09-06T19:17:12.771Z,98.30
2018-09-06T19:19:40.422Z,98.70
2018-09-06T19:22:08.090Z,99.10
2018-09-06T19:24:35.766Z,99.40
2018-09-06T19:27:03.479Z,99.70
2018-09-06T19:29:31.142Z,99.90
2018-09-06T19:31:59.044Z,99.90
2018-09-06T19:34:26.954Z,99.90
2018-09-06T19:36:54.753Z,99.90
2018-09-06T19:39:22.391Z,99.90
2018-09-06T19:41:50.363Z,99.90
2018-09-06T19:44:18.498Z,99.90
2018-09-06T19:46:46.209Z,99.60
2018-09-06T19:49:14.790Z,99.90
2018-09-06T19:51:46.352Z,99.60
2018-09-06T19:54:14.894Z,99.50
2018-09-06T19:56:42.946Z,99.20
2018-09-06T19:59:10.603Z,98.70
2018-09-06T20:01:39.435Z,98.00
2018-09-06T20:04:07.164Z,98.30
2018-09-06T20:06:34.747Z,98.80
2018-09-06T20:09:02.479Z,99.20
2018-09-06T20:11:30.186Z,99.60
2018-09-06T20:13:57.876Z,99.70
2018-09-06T20:16:25.581Z,99.90
2018-09-06T20:18:53.375Z,99.90
2018-09-06T20:21:21.038Z,99.90
2018-09-06T20:23:48.742Z,99.90
2018-09-06T20:26:20.269Z,99.80
2018-09-06T20:28:48.979Z,99.90
2018-09-06T20:31:17.679Z,99.80
2018-09-06T20:33:45.966Z,99.70
2018-09-06T20:36:13.571Z,99.70
2018-09-06T20:38:41.292Z,99.70
2018-09-06T20:43:55.498Z,99.50
2018-09-06T20:46:23.267Z,99.30
2018-09-06T20:48:50.974Z,98.70
2018-09-06T20:51:18.545Z,98.30
2018-09-06T20:53:46.119Z,98.20
2018-09-06T20:56:13.826Z,98.50
2018-09-06T20:58:42.266Z,98.80
2018-09-06T21:01:09.909Z,98.80
2018-09-06T21:03:37.565Z,98.50
2018-09-06T21:06:05.319Z,98.00
2018-09-06T21:08:33.013Z,98.10
2018-09-06T21:11:00.684Z,97.90
2018-09-06T21:13:28.331Z,98.10
2018-09-06T21:15:56.195Z,98.40
2018-09-06T21:18:23.895Z,98.50
2018-09-06T21:20:51.662Z,98.60
2018-09-06T21:23:19.376Z,98.80
2018-09-06T21:25:46.987Z,98.30
2018-09-06T21:28:14.779Z,98.20
2018-09-06T21:30:42.392Z,98.60
2018-09-06T21:33:10.143Z,98.90
2018-09-06T21:35:37.806Z,99.10
2018-09-06T21:38:05.539Z,99.50
2018-09-06T21:40:33.164Z,99.60
2018-09-06T21:43:00.826Z,99.60
2018-09-06T21:45:28.647Z,99.60
2018-09-06T21:47:56.475Z,99.60
2018-09-06T21:50:24.171Z,99.60
2018-09-06T21:52:52.247Z,99.10
2018-09-06T21:55:19.939Z,98.70
2018-09-06T21:57:47.595Z,98.80
2018-09-06T22:00:15.316Z,99.10
2018-09-06T22:02:48.496Z,99.30
2018-09-06T22:05:16.240Z,99.40
2018-09-06T22:07:44.017Z,99.40
2018-09-06T22:10:12.206Z,99.40
2018-09-06T22:12:39.886Z,99.20
2018-09-06T22:15:07.571Z,99.40
2018-09-06T22:17:35.280Z,99.00
2018-09-06T22:20:03.042Z,99.00
2018-09-06T22:22:30.754Z,99.40
2018-09-06T22:24:58.466Z,99.80
2018-09-06T22:27:26.165Z,99.70
2018-09-06T22:29:53.819Z,99.70
2018-09-06T22:32:21.503Z,99.60
2018-09-06T22:34:49.374Z,99.70
2018-09-06T22:37:17.039Z,99.80
2018-09-06T22:39:44.756Z,99.50
2018-09-06T22:42:12.484Z,99.40
2018-09-06T22:44:40.163Z,99.50
2018-09-06T22:47:07.879Z,99.40
2018-09-06T22:49:35.758Z,99.60
2018-09-06T22:52:03.809Z,99.80
2018-09-06T22:54:31.487Z,99.50
2018-09-06T22:56:59.268Z,99.50
2018-09-06T22:59:27.226Z,99.60
2018-09-06T23:01:56.505Z,99.30
2018-09-06T23:04:24.157Z,99.30
2018-09-06T23:06:51.799Z,99.70
2018-09-06T23:09:19.438Z,99.60
2018-09-06T23:11:47.396Z,99.80
2018-09-06T23:14:15.123Z,99.90
2018-09-06T23:16:42.820Z,99.90
2018-09-06T23:19:10.718Z,99.90
2018-09-06T23:21:38.405Z,99.90
2018-09-06T23:24:06.157Z,99.90
2018-09-06T23:26:33.863Z,99.90
2018-09-06T23:29:01.579Z,99.90
2018-09-06T23:31:29.246Z,99.90
2018-09-06T23:33:56.910Z,99.90
2018-09-06T23:36:24.584Z,99.90
2018-09-06T23:38:52.218Z,99.90
2018-09-06T23:41:19.842Z,99.90
2018-09-06T23:43:47.743Z,99.90
2018-09-06T23:46:15.370Z,99.90
2018-09-06T23:48:43.020Z,99.90
2018-09-06T23:51:10.670Z,99.90
2018-09-06T23:53:38.371Z,99.90
2018-09-06T23:56:06.017Z,99.90
2018-09-06T23:58:33.723Z,99.90
